UTAT

Daşoguz Airport

Daşoguz, Turkmenistan
TAF UTAT 162234Z 1700/1724 11014KT 6000 OVC020 530002 TEMPO 1700/1705 1000 BR OVC003 TEMPO 1705/1712 14016G26KT
Issued Valid From Valid To
Jan-16 @ 22:34 UTC
(6 hours ago)
Jan-17 @ 00:00 UTC
(5 hours ago)
Jan-18 @ 00:00 UTC
(in 19 hours)
Jan-17 @ 00:00 to Jan-18 @ 00:00
TAF UTAT 162234Z 1700/1724 11014KT 6000 OVC020 530002
Wind Visibility Clouds Turbulence
110° at 14 knots 6,003 meters
  • Overcast at 2,000' AGL
Frequent moderate clear air turbulence expected at the surface extending to 2,000' AGL
Temporary Jan-17 @ 00:00 to Jan-17 @ 05:00
TEMPO 1700/1705 1000 BR OVC003
Visibility Clouds Conditions
998 meters
  • Overcast at 300' AGL
  • Mist
Temporary Jan-17 @ 05:00 to Jan-17 @ 12:00
TEMPO 1705/1712 14016G26KT
Wind
140° at 16 knots
 Gusting to 26 knots
TAF UTAT 162234Z 1700/1724 11014KT 6000 OVC020 530002 TEMPO 1700/1705 1000 BR OVC003 TEMPO 1705/1712 14016G26KT
Issued Jan-16 @ 22:34 UTC
(6 hours ago)
Valid From Jan-17 @ 00:00 UTC
(5 hours ago)
Valid To Jan-18 @ 00:00 UTC
(in 19 hours)
Jan-17 @ 00:00 - Jan-18 @ 00:00
Wind Visibility
110° at 14 knots 6,003 meters
Clouds
  • Overcast at 2,000' AGL
Temporary Jan-17 @ 00:00 - Jan-17 @ 05:00
Clouds
  • Overcast at 300' AGL
Conditions
  • Mist
Temporary Jan-17 @ 05:00 - Jan-17 @ 12:00
Wind
140° at 16 knots
 Gusting to 26 knots